sensor_id;sensor_type;location;lat;lon;timestamp;temperature;humidity
28845;DHT22;15976;47.938;7.758;2023-04-24T00:00:34;13.20;70.20
28845;DHT22;15976;47.938;7.758;2023-04-24T00:03:20;13.10;70.40
28845;DHT22;15976;47.938;7.758;2023-04-24T00:06:06;13.10;70.50
28845;DHT22;15976;47.938;7.758;2023-04-24T00:08:35;13.00;70.60
28845;DHT22;15976;47.938;7.758;2023-04-24T00:11:06;13.00;70.80
28845;DHT22;15976;47.938;7.758;2023-04-24T00:13:45;13.00;70.80
28845;DHT22;15976;47.938;7.758;2023-04-24T00:16:25;13.00;70.90
28845;DHT22;15976;47.938;7.758;2023-04-24T00:19:00;12.90;70.70
28845;DHT22;15976;47.938;7.758;2023-04-24T00:21:40;13.00;70.70
28845;DHT22;15976;47.938;7.758;2023-04-24T00:24:25;13.00;70.70
28845;DHT22;15976;47.938;7.758;2023-04-24T00:27:05;13.00;70.70
28845;DHT22;15976;47.938;7.758;2023-04-24T00:29:43;13.00;70.50
28845;DHT22;15976;47.938;7.758;2023-04-24T00:32:19;13.00;70.50
28845;DHT22;15976;47.938;7.758;2023-04-24T00:34:53;13.00;70.60
28845;DHT22;15976;47.938;7.758;2023-04-24T00:37:26;13.00;70.50
28845;DHT22;15976;47.938;7.758;2023-04-24T00:40:05;13.00;70.40
28845;DHT22;15976;47.938;7.758;2023-04-24T00:42:56;13.00;70.30
28845;DHT22;15976;47.938;7.758;2023-04-24T00:45:33;13.00;70.40
28845;DHT22;15976;47.938;7.758;2023-04-24T00:48:11;13.10;70.40
28845;DHT22;15976;47.938;7.758;2023-04-24T00:50:47;13.10;70.50
28845;DHT22;15976;47.938;7.758;2023-04-24T00:53:44;13.00;70.40
28845;DHT22;15976;47.938;7.758;2023-04-24T00:56:18;13.10;70.30
28845;DHT22;15976;47.938;7.758;2023-04-24T00:58:49;13.10;70.30
28845;DHT22;15976;47.938;7.758;2023-04-24T01:01:22;13.10;70.20
28845;DHT22;15976;47.938;7.758;2023-04-24T01:03:59;13.00;70.10
28845;DHT22;15976;47.938;7.758;2023-04-24T01:06:35;13.00;70.10
28845;DHT22;15976;47.938;7.758;2023-04-24T01:09:14;13.00;70.10
28845;DHT22;15976;47.938;7.758;2023-04-24T01:11:53;12.90;70.10
28845;DHT22;15976;47.938;7.758;2023-04-24T01:14:53;12.90;70.30
28845;DHT22;15976;47.938;7.758;2023-04-24T01:17:29;12.90;70.50
28845;DHT22;15976;47.938;7.758;2023-04-24T01:20:02;12.90;70.60
28845;DHT22;15976;47.938;7.758;2023-04-24T01:22:51;12.90;70.60
28845;DHT22;15976;47.938;7.758;2023-04-24T01:25:28;12.90;70.60
28845;DHT22;15976;47.938;7.758;2023-04-24T01:28:03;12.90;70.60
28845;DHT22;15976;47.938;7.758;2023-04-24T01:30:31;12.90;70.70
28845;DHT22;15976;47.938;7.758;2023-04-24T01:32:58;12.90;70.70
28845;DHT22;15976;47.938;7.758;2023-04-24T01:35:26;12.90;70.80
28845;DHT22;15976;47.938;7.758;2023-04-24T01:37:53;12.90;70.80
28845;DHT22;15976;47.938;7.758;2023-04-24T01:40:23;12.90;71.00
28845;DHT22;15976;47.938;7.758;2023-04-24T01:42:50;12.80;71.00
28845;DHT22;15976;47.938;7.758;2023-04-24T01:45:18;12.70;71.30
28845;DHT22;15976;47.938;7.758;2023-04-24T01:47:45;12.70;71.60
28845;DHT22;15976;47.938;7.758;2023-04-24T01:50:13;12.60;71.90
28845;DHT22;15976;47.938;7.758;2023-04-24T01:52:40;12.60;72.20
28845;DHT22;15976;47.938;7.758;2023-04-24T01:55:09;12.50;72.30
28845;DHT22;15976;47.938;7.758;2023-04-24T01:57:37;12.50;72.50
28845;DHT22;15976;47.938;7.758;2023-04-24T02:00:05;12.50;72.60
28845;DHT22;15976;47.938;7.758;2023-04-24T02:02:40;12.50;72.80
28845;DHT22;15976;47.938;7.758;2023-04-24T02:05:09;12.50;72.90
28845;DHT22;15976;47.938;7.758;2023-04-24T02:07:36;12.50;72.90
28845;DHT22;15976;47.938;7.758;2023-04-24T02:10:04;12.60;73.20
28845;DHT22;15976;47.938;7.758;2023-04-24T02:12:31;12.50;73.80
28845;DHT22;15976;47.938;7.758;2023-04-24T02:14:58;12.40;74.50
28845;DHT22;15976;47.938;7.758;2023-04-24T02:17:25;12.40;75.30
28845;DHT22;15976;47.938;7.758;2023-04-24T02:19:53;12.30;76.00
28845;DHT22;15976;47.938;7.758;2023-04-24T02:22:20;12.30;76.50
28845;DHT22;15976;47.938;7.758;2023-04-24T02:24:47;12.30;76.60
28845;DHT22;15976;47.938;7.758;2023-04-24T02:27:15;12.30;76.50
28845;DHT22;15976;47.938;7.758;2023-04-24T02:29:42;12.40;76.40
28845;DHT22;15976;47.938;7.758;2023-04-24T02:32:09;12.30;76.20
28845;DHT22;15976;47.938;7.758;2023-04-24T02:34:39;12.30;76.20
28845;DHT22;15976;47.938;7.758;2023-04-24T02:37:15;12.30;76.00
28845;DHT22;15976;47.938;7.758;2023-04-24T02:39:42;12.40;76.00
28845;DHT22;15976;47.938;7.758;2023-04-24T02:42:10;12.40;75.80
28845;DHT22;15976;47.938;7.758;2023-04-24T02:44:37;12.40;75.70
28845;DHT22;15976;47.938;7.758;2023-04-24T02:47:04;12.40;75.60
28845;DHT22;15976;47.938;7.758;2023-04-24T02:49:31;12.50;75.60
28845;DHT22;15976;47.938;7.758;2023-04-24T02:51:58;12.50;75.50
28845;DHT22;15976;47.938;7.758;2023-04-24T02:54:25;12.50;75.40
28845;DHT22;15976;47.938;7.758;2023-04-24T02:56:52;12.50;75.40
28845;DHT22;15976;47.938;7.758;2023-04-24T02:59:19;12.50;75.40
28845;DHT22;15976;47.938;7.758;2023-04-24T03:01:47;12.50;75.40
28845;DHT22;15976;47.938;7.758;2023-04-24T03:04:13;12.50;75.40
28845;DHT22;15976;47.938;7.758;2023-04-24T03:06:42;12.50;75.50
28845;DHT22;15976;47.938;7.758;2023-04-24T03:09:09;12.50;75.50
28845;DHT22;15976;47.938;7.758;2023-04-24T03:11:37;12.50;75.70
28845;DHT22;15976;47.938;7.758;2023-04-24T03:14:04;12.50;75.70
28845;DHT22;15976;47.938;7.758;2023-04-24T03:16:31;12.50;75.80
28845;DHT22;15976;47.938;7.758;2023-04-24T03:19:00;12.50;75.80
28845;DHT22;15976;47.938;7.758;2023-04-24T03:21:30;12.50;75.90
28845;DHT22;15976;47.938;7.758;2023-04-24T03:23:58;12.50;76.00
28845;DHT22;15976;47.938;7.758;2023-04-24T03:26:25;12.50;76.10
28845;DHT22;15976;47.938;7.758;2023-04-24T03:29:04;12.40;76.10
28845;DHT22;15976;47.938;7.758;2023-04-24T03:31:31;12.30;76.60
28845;DHT22;15976;47.938;7.758;2023-04-24T03:33:58;12.30;76.80
28845;DHT22;15976;47.938;7.758;2023-04-24T03:36:43;12.30;77.10
28845;DHT22;15976;47.938;7.758;2023-04-24T03:43:36;12.30;76.90
28845;DHT22;15976;47.938;7.758;2023-04-24T03:46:14;12.30;76.60
28845;DHT22;15976;47.938;7.758;2023-04-24T03:48:47;12.30;76.70
28845;DHT22;15976;47.938;7.758;2023-04-24T03:51:19;12.30;76.60
28845;DHT22;15976;47.938;7.758;2023-04-24T03:53:50;12.20;76.80
28845;DHT22;15976;47.938;7.758;2023-04-24T03:56:19;12.20;76.90
28845;DHT22;15976;47.938;7.758;2023-04-24T03:58:47;12.20;77.20
28845;DHT22;15976;47.938;7.758;2023-04-24T04:01:15;12.20;77.30
28845;DHT22;15976;47.938;7.758;2023-04-24T04:04:06;12.20;77.60
28845;DHT22;15976;47.938;7.758;2023-04-24T04:06:36;12.20;77.60
28845;DHT22;15976;47.938;7.758;2023-04-24T04:09:04;12.20;77.60
28845;DHT22;15976;47.938;7.758;2023-04-24T04:11:31;12.20;77.60
28845;DHT22;15976;47.938;7.758;2023-04-24T04:13:58;12.20;77.60
28845;DHT22;15976;47.938;7.758;2023-04-24T04:16:25;12.20;77.60
28845;DHT22;15976;47.938;7.758;2023-04-24T04:18:59;12.20;77.60
28845;DHT22;15976;47.938;7.758;2023-04-24T04:21:26;12.20;77.60
28845;DHT22;15976;47.938;7.758;2023-04-24T04:24:07;12.20;77.60
28845;DHT22;15976;47.938;7.758;2023-04-24T04:26:42;12.20;77.60
28845;DHT22;15976;47.938;7.758;2023-04-24T04:29:20;12.20;77.60
28845;DHT22;15976;47.938;7.758;2023-04-24T04:31:49;12.20;77.40
28845;DHT22;15976;47.938;7.758;2023-04-24T04:34:16;12.20;77.40
28845;DHT22;15976;47.938;7.758;2023-04-24T04:36:43;12.20;78.00
28845;DHT22;15976;47.938;7.758;2023-04-24T04:39:33;12.10;77.10
28845;DHT22;15976;47.938;7.758;2023-04-24T04:42:07;12.20;77.00
28845;DHT22;15976;47.938;7.758;2023-04-24T04:44:39;12.20;77.00
28845;DHT22;15976;47.938;7.758;2023-04-24T04:47:09;12.10;76.80
28845;DHT22;15976;47.938;7.758;2023-04-24T04:49:38;12.10;76.60
28845;DHT22;15976;47.938;7.758;2023-04-24T04:52:10;12.10;76.40
28845;DHT22;15976;47.938;7.758;2023-04-24T04:54:37;12.10;76.40
28845;DHT22;15976;47.938;7.758;2023-04-24T04:57:05;12.10;76.40
28845;DHT22;15976;47.938;7.758;2023-04-24T04:59:33;12.10;76.30
28845;DHT22;15976;47.938;7.758;2023-04-24T05:02:09;12.00;76.20
28845;DHT22;15976;47.938;7.758;2023-04-24T05:04:37;12.00;76.40
28845;DHT22;15976;47.938;7.758;2023-04-24T05:07:04;12.00;76.60
28845;DHT22;15976;47.938;7.758;2023-04-24T05:09:33;12.00;76.70
28845;DHT22;15976;47.938;7.758;2023-04-24T05:12:03;12.00;76.70
28845;DHT22;15976;47.938;7.758;2023-04-24T05:14:35;12.10;76.60
28845;DHT22;15976;47.938;7.758;2023-04-24T05:17:02;12.00;77.10
28845;DHT22;15976;47.938;7.758;2023-04-24T05:23:03;12.00;76.20
28845;DHT22;15976;47.938;7.758;2023-04-24T05:25:30;12.00;76.30
28845;DHT22;15976;47.938;7.758;2023-04-24T05:28:07;12.00;76.30
28845;DHT22;15976;47.938;7.758;2023-04-24T05:30:34;11.90;76.40
28845;DHT22;15976;47.938;7.758;2023-04-24T05:33:01;11.90;76.60
28845;DHT22;15976;47.938;7.758;2023-04-24T05:35:32;11.90;76.60
28845;DHT22;15976;47.938;7.758;2023-04-24T05:38:00;11.90;76.40
28845;DHT22;15976;47.938;7.758;2023-04-24T05:40:28;11.90;76.20
28845;DHT22;15976;47.938;7.758;2023-04-24T05:42:55;11.90;76.20
28845;DHT22;15976;47.938;7.758;2023-04-24T05:45:23;11.90;76.10
28845;DHT22;15976;47.938;7.758;2023-04-24T05:47:50;11.90;75.90
28845;DHT22;15976;47.938;7.758;2023-04-24T05:50:19;12.00;75.90
28845;DHT22;15976;47.938;7.758;2023-04-24T05:52:46;12.00;76.40
28845;DHT22;15976;47.938;7.758;2023-04-24T05:55:27;12.00;75.40
28845;DHT22;15976;47.938;7.758;2023-04-24T05:57:56;11.90;75.20
28845;DHT22;15976;47.938;7.758;2023-04-24T06:00:25;11.90;75.20
28845;DHT22;15976;47.938;7.758;2023-04-24T06:03:00;12.00;75.20
28845;DHT22;15976;47.938;7.758;2023-04-24T06:05:27;12.00;75.00
28845;DHT22;15976;47.938;7.758;2023-04-24T06:07:54;12.10;74.90
28845;DHT22;15976;47.938;7.758;2023-04-24T06:10:24;12.10;74.30
28845;DHT22;15976;47.938;7.758;2023-04-24T06:12:51;12.20;74.00
28845;DHT22;15976;47.938;7.758;2023-04-24T06:15:18;12.20;73.60
28845;DHT22;15976;47.938;7.758;2023-04-24T06:17:58;12.20;73.30
28845;DHT22;15976;47.938;7.758;2023-04-24T06:20:26;12.20;73.30
28845;DHT22;15976;47.938;7.758;2023-04-24T06:22:56;12.10;73.30
28845;DHT22;15976;47.938;7.758;2023-04-24T06:25:25;12.10;73.20
28845;DHT22;15976;47.938;7.758;2023-04-24T06:27:56;12.10;73.00
28845;DHT22;15976;47.938;7.758;2023-04-24T06:30:23;12.00;73.00
28845;DHT22;15976;47.938;7.758;2023-04-24T06:32:50;12.00;73.10
28845;DHT22;15976;47.938;7.758;2023-04-24T06:35:17;12.00;73.10
28845;DHT22;15976;47.938;7.758;2023-04-24T06:37:45;12.10;73.10
28845;DHT22;15976;47.938;7.758;2023-04-24T06:40:12;12.00;73.10
28845;DHT22;15976;47.938;7.758;2023-04-24T06:42:39;12.00;73.10
28845;DHT22;15976;47.938;7.758;2023-04-24T06:45:08;12.00;73.10
28845;DHT22;15976;47.938;7.758;2023-04-24T06:47:35;12.10;73.30
28845;DHT22;15976;47.938;7.758;2023-04-24T06:50:02;12.00;73.20
28845;DHT22;15976;47.938;7.758;2023-04-24T06:52:29;12.10;73.20
28845;DHT22;15976;47.938;7.758;2023-04-24T06:55:03;12.20;73.00
28845;DHT22;15976;47.938;7.758;2023-04-24T06:57:33;12.20;72.80
28845;DHT22;15976;47.938;7.758;2023-04-24T07:00:00;12.30;72.60
28845;DHT22;15976;47.938;7.758;2023-04-24T07:02:27;12.30;72.20
28845;DHT22;15976;47.938;7.758;2023-04-24T07:04:54;12.40;71.80
28845;DHT22;15976;47.938;7.758;2023-04-24T07:07:21;12.50;71.20
28845;DHT22;15976;47.938;7.758;2023-04-24T07:09:51;12.50;70.20
28845;DHT22;15976;47.938;7.758;2023-04-24T07:12:18;12.50;69.40
28845;DHT22;15976;47.938;7.758;2023-04-24T07:14:47;12.60;69.00
28845;DHT22;15976;47.938;7.758;2023-04-24T07:17:14;12.70;69.40
28845;DHT22;15976;47.938;7.758;2023-04-24T07:19:42;13.20;68.50
28845;DHT22;15976;47.938;7.758;2023-04-24T07:22:09;14.00;65.60
28845;DHT22;15976;47.938;7.758;2023-04-24T07:24:38;14.60;63.10
28845;DHT22;15976;47.938;7.758;2023-04-24T07:27:05;15.00;61.20
28845;DHT22;15976;47.938;7.758;2023-04-24T07:29:32;15.30;59.70
28845;DHT22;15976;47.938;7.758;2023-04-24T07:31:59;15.50;59.30
28845;DHT22;15976;47.938;7.758;2023-04-24T07:34:30;16.00;57.60
28845;DHT22;15976;47.938;7.758;2023-04-24T07:36:57;16.10;55.90
28845;DHT22;15976;47.938;7.758;2023-04-24T07:39:24;16.00;55.80
28845;DHT22;15976;47.938;7.758;2023-04-24T07:41:51;16.00;56.40
28845;DHT22;15976;47.938;7.758;2023-04-24T07:44:18;16.10;54.90
28845;DHT22;15976;47.938;7.758;2023-04-24T07:46:45;16.40;54.70
28845;DHT22;15976;47.938;7.758;2023-04-24T07:49:12;16.80;54.00
28845;DHT22;15976;47.938;7.758;2023-04-24T07:51:42;17.10;52.70
28845;DHT22;15976;47.938;7.758;2023-04-24T07:54:09;17.10;53.10
28845;DHT22;15976;47.938;7.758;2023-04-24T07:56:36;17.00;52.30
28845;DHT22;15976;47.938;7.758;2023-04-24T07:59:06;16.90;52.20
28845;DHT22;15976;47.938;7.758;2023-04-24T08:01:33;16.70;52.20
28845;DHT22;15976;47.938;7.758;2023-04-24T08:04:00;16.40;53.10
28845;DHT22;15976;47.938;7.758;2023-04-24T08:06:28;16.00;53.50
28845;DHT22;15976;47.938;7.758;2023-04-24T08:08:57;15.60;54.10
28845;DHT22;15976;47.938;7.758;2023-04-24T08:11:25;15.20;55.20
28845;DHT22;15976;47.938;7.758;2023-04-24T08:13:53;14.80;55.90
28845;DHT22;15976;47.938;7.758;2023-04-24T08:16:22;14.50;56.50
28845;DHT22;15976;47.938;7.758;2023-04-24T08:18:51;14.30;56.90
28845;DHT22;15976;47.938;7.758;2023-04-24T08:21:18;14.10;57.70
28845;DHT22;15976;47.938;7.758;2023-04-24T08:23:47;14.00;58.20
28845;DHT22;15976;47.938;7.758;2023-04-24T08:26:14;13.90;58.50
28845;DHT22;15976;47.938;7.758;2023-04-24T08:28:42;13.80;58.80
28845;DHT22;15976;47.938;7.758;2023-04-24T08:31:09;13.70;58.40
28845;DHT22;15976;47.938;7.758;2023-04-24T08:33:37;13.70;58.60
28845;DHT22;15976;47.938;7.758;2023-04-24T08:36:05;13.70;58.90
28845;DHT22;15976;47.938;7.758;2023-04-24T08:38:32;13.80;58.80
28845;DHT22;15976;47.938;7.758;2023-04-24T08:41:00;13.80;58.00
28845;DHT22;15976;47.938;7.758;2023-04-24T08:43:28;13.80;56.90
28845;DHT22;15976;47.938;7.758;2023-04-24T08:45:56;13.80;56.40
28845;DHT22;15976;47.938;7.758;2023-04-24T08:48:24;13.80;54.80
28845;DHT22;15976;47.938;7.758;2023-04-24T08:50:59;13.80;53.90
28845;DHT22;15976;47.938;7.758;2023-04-24T08:53:26;13.80;52.90
28845;DHT22;15976;47.938;7.758;2023-04-24T08:55:55;13.80;52.00
28845;DHT22;15976;47.938;7.758;2023-04-24T08:58:25;13.70;51.60
28845;DHT22;15976;47.938;7.758;2023-04-24T09:00:57;13.70;51.30
28845;DHT22;15976;47.938;7.758;2023-04-24T09:03:27;13.80;51.40
28845;DHT22;15976;47.938;7.758;2023-04-24T09:05:55;13.80;50.50
28845;DHT22;15976;47.938;7.758;2023-04-24T09:08:25;13.90;49.80
28845;DHT22;15976;47.938;7.758;2023-04-24T09:10:52;13.90;50.20
28845;DHT22;15976;47.938;7.758;2023-04-24T09:13:20;14.00;50.80
28845;DHT22;15976;47.938;7.758;2023-04-24T09:15:47;14.00;50.50
28845;DHT22;15976;47.938;7.758;2023-04-24T09:18:14;14.20;51.00
28845;DHT22;15976;47.938;7.758;2023-04-24T09:21:06;14.30;49.80
28845;DHT22;15976;47.938;7.758;2023-04-24T09:23:33;14.60;49.30
28845;DHT22;15976;47.938;7.758;2023-04-24T09:26:03;14.90;49.30
28845;DHT22;15976;47.938;7.758;2023-04-24T09:28:36;15.00;47.10
28845;DHT22;15976;47.938;7.758;2023-04-24T09:31:09;14.70;47.40
28845;DHT22;15976;47.938;7.758;2023-04-24T09:33:38;14.40;48.00
28845;DHT22;15976;47.938;7.758;2023-04-24T09:36:09;14.20;48.20
28845;DHT22;15976;47.938;7.758;2023-04-24T09:38:38;13.90;47.60
28845;DHT22;15976;47.938;7.758;2023-04-24T09:41:08;13.70;47.20
28845;DHT22;15976;47.938;7.758;2023-04-24T09:43:40;13.60;48.20
28845;DHT22;15976;47.938;7.758;2023-04-24T09:46:07;13.60;48.80
28845;DHT22;15976;47.938;7.758;2023-04-24T09:48:37;13.60;48.70
28845;DHT22;15976;47.938;7.758;2023-04-24T09:51:06;13.60;48.80
28845;DHT22;15976;47.938;7.758;2023-04-24T09:53:38;13.70;48.00
28845;DHT22;15976;47.938;7.758;2023-04-24T09:56:13;13.70;48.00
28845;DHT22;15976;47.938;7.758;2023-04-24T09:58:40;13.90;48.30
28845;DHT22;15976;47.938;7.758;2023-04-24T10:01:08;14.80;48.50
28845;DHT22;15976;47.938;7.758;2023-04-24T10:03:36;16.40;45.50
28845;DHT22;15976;47.938;7.758;2023-04-24T10:06:04;17.80;42.70
28845;DHT22;15976;47.938;7.758;2023-04-24T10:08:36;19.20;39.80
28845;DHT22;15976;47.938;7.758;2023-04-24T10:11:04;20.00;38.60
28845;DHT22;15976;47.938;7.758;2023-04-24T10:13:32;20.20;38.10
28845;DHT22;15976;47.938;7.758;2023-04-24T10:16:00;20.20;37.40
28845;DHT22;15976;47.938;7.758;2023-04-24T10:18:28;20.20;36.40
28845;DHT22;15976;47.938;7.758;2023-04-24T10:20:57;19.70;35.10
28845;DHT22;15976;47.938;7.758;2023-04-24T10:23:27;19.00;36.70
28845;DHT22;15976;47.938;7.758;2023-04-24T10:25:54;18.40;37.30
28845;DHT22;15976;47.938;7.758;2023-04-24T10:28:22;17.70;37.50
28845;DHT22;15976;47.938;7.758;2023-04-24T10:30:51;17.10;39.20
28845;DHT22;15976;47.938;7.758;2023-04-24T10:33:22;16.70;40.70
28845;DHT22;15976;47.938;7.758;2023-04-24T10:35:52;16.40;41.40
28845;DHT22;15976;47.938;7.758;2023-04-24T10:38:26;16.20;42.00
28845;DHT22;15976;47.938;7.758;2023-04-24T10:41:07;16.20;42.50
28845;DHT22;15976;47.938;7.758;2023-04-24T10:43:35;16.00;42.40
28845;DHT22;15976;47.938;7.758;2023-04-24T10:46:04;17.10;42.80
28845;DHT22;15976;47.938;7.758;2023-04-24T10:48:32;18.10;40.30
28845;DHT22;15976;47.938;7.758;2023-04-24T10:51:00;18.30;39.90
28845;DHT22;15976;47.938;7.758;2023-04-24T10:53:30;18.40;40.70
28845;DHT22;15976;47.938;7.758;2023-04-24T10:56:06;18.30;39.30
28845;DHT22;15976;47.938;7.758;2023-04-24T10:58:45;17.90;40.00
28845;DHT22;15976;47.938;7.758;2023-04-24T11:01:27;17.50;40.30
28845;DHT22;15976;47.938;7.758;2023-04-24T11:03:59;17.20;41.00
28845;DHT22;15976;47.938;7.758;2023-04-24T11:09:06;16.60;41.80
28845;DHT22;15976;47.938;7.758;2023-04-24T11:11:35;16.50;42.30
28845;DHT22;15976;47.938;7.758;2023-04-24T11:14:05;16.30;42.90
28845;DHT22;15976;47.938;7.758;2023-04-24T11:16:52;16.00;43.50
28845;DHT22;15976;47.938;7.758;2023-04-24T11:19:28;15.80;44.10
28845;DHT22;15976;47.938;7.758;2023-04-24T11:22:03;15.70;44.20
28845;DHT22;15976;47.938;7.758;2023-04-24T11:24:49;15.60;44.40
28845;DHT22;15976;47.938;7.758;2023-04-24T11:27:23;15.50;44.60
28845;DHT22;15976;47.938;7.758;2023-04-24T11:32:27;15.50;45.20
28845;DHT22;15976;47.938;7.758;2023-04-24T11:34:57;15.70;45.50
28845;DHT22;15976;47.938;7.758;2023-04-24T11:37:26;16.40;44.70
28845;DHT22;15976;47.938;7.758;2023-04-24T11:39:55;17.50;43.70
28845;DHT22;15976;47.938;7.758;2023-04-24T11:42:23;18.70;41.80
28845;DHT22;15976;47.938;7.758;2023-04-24T11:44:53;19.60;40.50
28845;DHT22;15976;47.938;7.758;2023-04-24T11:47:28;19.90;38.60
28845;DHT22;15976;47.938;7.758;2023-04-24T11:49:55;19.80;38.40
28845;DHT22;15976;47.938;7.758;2023-04-24T11:52:23;20.10;38.70
28845;DHT22;15976;47.938;7.758;2023-04-24T11:54:50;19.90;38.00
28845;DHT22;15976;47.938;7.758;2023-04-24T11:57:21;19.40;38.00
28845;DHT22;15976;47.938;7.758;2023-04-24T11:59:49;18.80;38.50
28845;DHT22;15976;47.938;7.758;2023-04-24T12:02:26;18.30;39.60
28845;DHT22;15976;47.938;7.758;2023-04-24T12:04:54;17.90;40.40
28845;DHT22;15976;47.938;7.758;2023-04-24T12:07:23;17.60;41.40
28845;DHT22;15976;47.938;7.758;2023-04-24T12:09:58;17.40;41.90
28845;DHT22;15976;47.938;7.758;2023-04-24T12:12:28;17.30;42.40
28845;DHT22;15976;47.938;7.758;2023-04-24T12:14:58;17.50;42.70
28845;DHT22;15976;47.938;7.758;2023-04-24T12:17:33;18.10;42.00
28845;DHT22;15976;47.938;7.758;2023-04-24T12:20:06;18.50;41.40
28845;DHT22;15976;47.938;7.758;2023-04-24T12:23:03;19.00;40.70
28845;DHT22;15976;47.938;7.758;2023-04-24T12:25:31;21.00;39.30
28845;DHT22;15976;47.938;7.758;2023-04-24T12:30:45;23.60;35.00
28845;DHT22;15976;47.938;7.758;2023-04-24T12:33:20;24.50;33.10
28845;DHT22;15976;47.938;7.758;2023-04-24T12:35:48;24.70;32.50
28845;DHT22;15976;47.938;7.758;2023-04-24T12:38:16;24.20;32.20
28845;DHT22;15976;47.938;7.758;2023-04-24T12:40:44;23.20;32.80
28845;DHT22;15976;47.938;7.758;2023-04-24T12:43:18;22.20;33.50
28845;DHT22;15976;47.938;7.758;2023-04-24T12:45:47;21.30;34.70
28845;DHT22;15976;47.938;7.758;2023-04-24T12:48:14;20.50;36.00
28845;DHT22;15976;47.938;7.758;2023-04-24T12:50:43;20.00;37.40
28845;DHT22;15976;47.938;7.758;2023-04-24T12:53:12;19.50;37.60
28845;DHT22;15976;47.938;7.758;2023-04-24T12:55:39;19.10;38.10
28845;DHT22;15976;47.938;7.758;2023-04-24T12:58:07;18.60;38.70
28845;DHT22;15976;47.938;7.758;2023-04-24T13:00:34;18.30;39.70
28845;DHT22;15976;47.938;7.758;2023-04-24T13:03:02;18.20;40.70
28845;DHT22;15976;47.938;7.758;2023-04-24T13:05:30;18.10;40.30
28845;DHT22;15976;47.938;7.758;2023-04-24T13:07:57;18.10;40.30
28845;DHT22;15976;47.938;7.758;2023-04-24T13:10:24;18.10;40.60
28845;DHT22;15976;47.938;7.758;2023-04-24T13:12:51;18.00;40.80
28845;DHT22;15976;47.938;7.758;2023-04-24T13:15:18;17.90;40.40
28845;DHT22;15976;47.938;7.758;2023-04-24T13:17:46;17.80;41.30
28845;DHT22;15976;47.938;7.758;2023-04-24T13:20:13;17.60;41.10
28845;DHT22;15976;47.938;7.758;2023-04-24T13:22:40;17.50;41.90
28845;DHT22;15976;47.938;7.758;2023-04-24T13:25:07;17.40;42.60
28845;DHT22;15976;47.938;7.758;2023-04-24T13:27:34;17.40;42.60
28845;DHT22;15976;47.938;7.758;2023-04-24T13:30:01;17.50;42.80
28845;DHT22;15976;47.938;7.758;2023-04-24T13:32:29;17.50;43.00
28845;DHT22;15976;47.938;7.758;2023-04-24T13:34:57;17.80;43.00
28845;DHT22;15976;47.938;7.758;2023-04-24T13:37:24;18.30;42.40
28845;DHT22;15976;47.938;7.758;2023-04-24T13:39:51;18.60;41.60
28845;DHT22;15976;47.938;7.758;2023-04-24T13:42:18;18.70;41.50
28845;DHT22;15976;47.938;7.758;2023-04-24T13:44:46;18.70;41.60
28845;DHT22;15976;47.938;7.758;2023-04-24T13:47:14;19.40;41.50
28845;DHT22;15976;47.938;7.758;2023-04-24T13:49:41;19.70;40.50
28845;DHT22;15976;47.938;7.758;2023-04-24T13:52:08;19.50;40.00
28845;DHT22;15976;47.938;7.758;2023-04-24T13:54:37;19.30;40.20
28845;DHT22;15976;47.938;7.758;2023-04-24T13:57:04;19.50;40.70
28845;DHT22;15976;47.938;7.758;2023-04-24T13:59:31;20.60;39.40
28845;DHT22;15976;47.938;7.758;2023-04-24T14:01:59;20.70;37.70
28845;DHT22;15976;47.938;7.758;2023-04-24T14:04:26;20.20;37.70
28845;DHT22;15976;47.938;7.758;2023-04-24T14:06:53;19.70;38.60
28845;DHT22;15976;47.938;7.758;2023-04-24T14:09:20;19.30;39.60
28845;DHT22;15976;47.938;7.758;2023-04-24T14:11:47;18.90;40.00
28845;DHT22;15976;47.938;7.758;2023-04-24T14:14:14;18.50;40.90
28845;DHT22;15976;47.938;7.758;2023-04-24T14:16:41;18.20;41.80
28845;DHT22;15976;47.938;7.758;2023-04-24T14:19:08;17.90;42.10
28845;DHT22;15976;47.938;7.758;2023-04-24T14:21:35;17.70;42.70
28845;DHT22;15976;47.938;7.758;2023-04-24T14:24:02;17.50;43.20
28845;DHT22;15976;47.938;7.758;2023-04-24T14:26:29;17.30;43.60
28845;DHT22;15976;47.938;7.758;2023-04-24T14:28:57;17.20;43.80
28845;DHT22;15976;47.938;7.758;2023-04-24T14:31:41;17.00;43.70
28845;DHT22;15976;47.938;7.758;2023-04-24T14:34:08;16.80;43.80
28845;DHT22;15976;47.938;7.758;2023-04-24T14:36:36;16.80;43.70
28845;DHT22;15976;47.938;7.758;2023-04-24T14:39:04;16.80;43.40
28845;DHT22;15976;47.938;7.758;2023-04-24T14:41:34;16.70;43.00
28845;DHT22;15976;47.938;7.758;2023-04-24T14:44:03;16.70;43.20
28845;DHT22;15976;47.938;7.758;2023-04-24T14:46:30;16.70;43.40
28845;DHT22;15976;47.938;7.758;2023-04-24T14:48:58;16.70;43.50
28845;DHT22;15976;47.938;7.758;2023-04-24T14:51:25;16.60;43.40
28845;DHT22;15976;47.938;7.758;2023-04-24T14:53:52;16.50;43.50
28845;DHT22;15976;47.938;7.758;2023-04-24T14:56:19;16.50;43.70
28845;DHT22;15976;47.938;7.758;2023-04-24T14:58:47;16.40;43.90
28845;DHT22;15976;47.938;7.758;2023-04-24T15:01:14;16.40;44.40
28845;DHT22;15976;47.938;7.758;2023-04-24T15:03:43;16.40;44.90
28845;DHT22;15976;47.938;7.758;2023-04-24T15:06:12;16.40;45.60
28845;DHT22;15976;47.938;7.758;2023-04-24T15:08:39;16.50;45.30
28845;DHT22;15976;47.938;7.758;2023-04-24T15:11:06;16.70;45.30
28845;DHT22;15976;47.938;7.758;2023-04-24T15:13:33;16.90;45.00
28845;DHT22;15976;47.938;7.758;2023-04-24T15:16:01;17.00;44.80
28845;DHT22;15976;47.938;7.758;2023-04-24T15:18:29;16.90;44.00
28845;DHT22;15976;47.938;7.758;2023-04-24T15:20:56;16.90;44.00
28845;DHT22;15976;47.938;7.758;2023-04-24T15:23:23;16.90;43.80
28845;DHT22;15976;47.938;7.758;2023-04-24T15:25:50;16.90;43.70
28845;DHT22;15976;47.938;7.758;2023-04-24T15:28:17;16.90;43.70
28845;DHT22;15976;47.938;7.758;2023-04-24T15:31:14;16.90;43.70
28845;DHT22;15976;47.938;7.758;2023-04-24T15:33:42;16.90;43.90
28845;DHT22;15976;47.938;7.758;2023-04-24T15:36:13;16.90;44.10
28845;DHT22;15976;47.938;7.758;2023-04-24T15:38:43;16.90;44.30
28845;DHT22;15976;47.938;7.758;2023-04-24T15:41:11;16.90;44.60
28845;DHT22;15976;47.938;7.758;2023-04-24T15:43:38;16.90;44.70
28845;DHT22;15976;47.938;7.758;2023-04-24T15:46:07;16.90;44.50
28845;DHT22;15976;47.938;7.758;2023-04-24T15:59:40;16.30;46.10
28845;DHT22;15976;47.938;7.758;2023-04-24T16:02:32;16.30;46.30
28845;DHT22;15976;47.938;7.758;2023-04-24T16:05:24;16.10;46.50
28845;DHT22;15976;47.938;7.758;2023-04-24T16:07:53;15.90;46.70
28845;DHT22;15976;47.938;7.758;2023-04-24T16:10:20;15.90;47.10
28845;DHT22;15976;47.938;7.758;2023-04-24T16:12:55;15.70;47.40
28845;DHT22;15976;47.938;7.758;2023-04-24T16:16:03;15.70;47.80